Wausau, WI (54402)

9:52 AM CDT on October 30, 2014 (GMT -0500)
6 White Pillars | Change Station
CLOSE
Current Station
Personal Weather Station
Location: Wausau, WI
Elevation: 1381 ft
Nearby Weather Stations
Active Advisory: Special Statement

Elev 1381 ft 45.00 °N, 89.60 °W | Updated 2 minutes ago

Overcast
Overcast
35.7 °F
Feels Like 36 °F
N
2.0
Wind Variable Wind from West
Gusts 2.0 mph

Today
High -- | Low -- °F
--% Chance of Precip.
Yesterday
High -- | Low -- °F
Precip. -- in
7:34 AM 5:49 PM
Waxing Crescent, 44% visible
Pressure 30.11 in
Visibility 10.0 miles
Clouds Overcast 8500 ft
Windchill 36 °F
Dew Point 34 °F
Humidity 94%
Rainfall 0.00 in
Snow Depth Not available.
UV 0 out of 12
Pollen .10 out of 12
Air Quality Not available.
Flu Activity Not available.
METAR KAUW 301354Z AUTO 23003KT 10SM OVC085 02/01 A3006 RMK AO2 SLP194 T00220011

More Conditions Fewer Conditions

Pressure 30.11 in
Visibility 10.0 miles
Clouds Overcast 8500 ft
Windchill 36 °F
Dew Point 34 °F
Humidity 94%
Rainfall 0.00 in
Snow Depth Not available.
UV 0 out of 12
Pollen .10 out of 12
Air Quality Not available.
Flu Activity Not available.
METAR KAUW 301354Z AUTO 23003KT 10SM OVC085 02/01 A3006 RMK AO2 SLP194 T00220011

More Conditions Fewer Conditions

10-Day Weather Forecast

Almanac

Astronomy

Oct. 30, 2014 Rise Set
Actual Time
Civil Twilight
Nautical Twilight
Astronomical Twilight
Moon
Length of Visible Light
Length of Day
Tomorrow will be .
, % of the Moon is Illuminated

Today's Extremes

State Highs State Lows

Community

WunderPhotos

Upload Photos

1,766,379 photos uploaded!

WunderBlogs® & News

Nearby

Air Quality

  Air Quality AQ Index Pollutant
Not available.

Snow Depth

Station Depth Elevation

Earthquake Activity

City Distance Mag. Time & Date
Minimum magnitude displayed is 2.5.

Coastal Water Temperatures

Place Temperature

Nearby Weather Stations